Aérodrome :
LOGIN :

S'inscrire | Disclaimer

   EN    FR    IT 

 










Légende :    VFR   VFR Marginal   IFR   IFR Intensif   IFR Très Intensif
Visi : 
Plafond : 
>= 8 km
>= 3000ft
5 à 8 km
1000 à 3000 ft
1500m à 5 km
500 à 1000 ft
800 à 1500m
200 à 500 ft
< 800m
< 200 ft
Symboles :   Orages  Brouillard  Fortes neiges  Fortes précipitations  Vent > 20 kt
SIGMETs :   Divers  Orages  Givrage  Turbulence  Onde Orograph.  Cendres Volcan.






- Altitude de l'aérodrome : 126 ft
- Code IATA : TIA


LATI - Rinas Mother Teresa Arpt - Tirana

DERNIER METAR :
  • 180220Z 16004KT CAVOK 01/M00 Q1024 NOSIG

METARs EXPIRÉS :
  • 180150Z 16004KT CAVOK 01/M00 Q1024 NOSIG
  • 180120Z 18003KT 8000 NSC 01/M00 Q1024 NOSIG
  • 180050Z 15004KT 7000 NSC M01/M02 Q1024 NOSIG
  • 180020Z 15004KT 5000 BR NSC 01/M00 Q1024 NOSIG
  • 172350Z 17004KT 5000 BR NSC 01/M00 Q1024 NOSIG

TAF TAF LATI
Valide du 18 à 00h jusqu'au 19 à 00h UTC


172300Z 1800/1824 VRB04KT 5000 BR NSC TX16/1812Z TNM01/1805Z
BECMG 1808/1810 CAVOK



MET'MAP, la Météo Aéronautique d'un coup d'oeil ! - Copyright ORBIFLY Décembre 2007 - Disclaimer

ORBIFLY MET'MAP TEAM :

Programmation & Développement : Alexandra Zaïnal
Sur une idée originale de : Baudouin d'Aumeries
Assistance à la programmation : Marc-Olivier Méhu
Soutien technique & logistique : Manuel Goepfert

Contact : metmap@orbifly.com




SOURCES & CREDITS :

   NOAA